createdAt,value
2022-09-21T00:01:07.591Z,96156.56
2022-09-21T00:03:35.336Z,96151.47
2022-09-21T00:06:04.759Z,96151.25
2022-09-21T00:08:32.648Z,96156.63
2022-09-21T00:11:00.320Z,96147.00
2022-09-21T00:13:28.722Z,96153.94
2022-09-21T00:15:56.746Z,96151.75
2022-09-21T00:18:26.666Z,96147.56
2022-09-21T00:20:54.433Z,96153.00
2022-09-21T00:23:23.213Z,96145.22
2022-09-21T00:25:51.228Z,96151.44
2022-09-21T00:28:18.828Z,96153.97
2022-09-21T00:30:51.557Z,96152.38
2022-09-21T00:33:19.213Z,96156.13
2022-09-21T00:35:48.168Z,96151.25
2022-09-21T00:38:15.743Z,96153.44
2022-09-21T00:40:43.759Z,96152.41
2022-09-21T00:43:15.643Z,96157.19
2022-09-21T00:45:44.175Z,96156.88
2022-09-21T00:48:11.854Z,96158.66
2022-09-21T00:50:45.349Z,96162.34
2022-09-21T00:53:16.032Z,96155.81
2022-09-21T00:55:49.219Z,96161.56
2022-09-21T00:58:24.191Z,96160.19
2022-09-21T01:00:52.383Z,96149.81
2022-09-21T01:03:20.030Z,96152.59
2022-09-21T01:05:47.590Z,96158.75
2022-09-21T01:08:18.478Z,96148.53
2022-09-21T01:11:01.341Z,96154.19
2022-09-21T01:13:44.203Z,96155.00
2022-09-21T01:16:16.745Z,96158.53
2022-09-21T01:18:51.820Z,96159.16
2022-09-21T01:21:24.724Z,96162.78
2022-09-21T01:24:19.449Z,96153.44
2022-09-21T01:27:19.249Z,96158.13
2022-09-21T01:29:53.194Z,96161.09
2022-09-21T01:32:26.051Z,96152.16
2022-09-21T01:34:56.454Z,96159.22
2022-09-21T01:37:29.309Z,96156.63
2022-09-21T01:40:02.940Z,96161.63
2022-09-21T01:42:33.715Z,96158.19
2022-09-21T01:45:08.060Z,96157.16
2022-09-21T01:47:39.892Z,96150.81
2022-09-21T01:50:13.323Z,96166.09
2022-09-21T01:52:45.969Z,96149.88
2022-09-21T01:55:17.654Z,96162.53
2022-09-21T01:57:53.160Z,96164.28
2022-09-21T02:00:23.316Z,96162.22
2022-09-21T02:02:59.098Z,96161.56
2022-09-21T02:05:30.016Z,96168.00
2022-09-21T02:07:59.485Z,96161.31
2022-09-21T02:10:32.383Z,96164.88
2022-09-21T02:13:05.691Z,96158.22
2022-09-21T02:15:58.768Z,96157.25
2022-09-21T02:18:46.760Z,96158.09
2022-09-21T02:21:21.814Z,96157.91
2022-09-21T02:23:58.806Z,96157.94
2022-09-21T02:26:33.050Z,96156.50
2022-09-21T02:29:11.809Z,96144.97
2022-09-21T02:31:46.694Z,96160.84
2022-09-21T02:34:20.152Z,96153.59
2022-09-21T02:36:53.675Z,96159.00
2022-09-21T02:39:31.796Z,96162.41
2022-09-21T02:42:06.669Z,96165.97
2022-09-21T02:44:40.427Z,96169.38
2022-09-21T02:47:15.059Z,96165.25
2022-09-21T02:49:47.623Z,96163.66
2022-09-21T02:52:18.200Z,96161.56
2022-09-21T02:54:51.302Z,96164.88
2022-09-21T02:57:21.558Z,96162.50
2022-09-21T02:59:50.035Z,96158.97
2022-09-21T03:02:19.074Z,96156.66
2022-09-21T03:04:49.941Z,96162.66
2022-09-21T03:07:17.954Z,96160.25
2022-09-21T03:09:46.493Z,96164.91
2022-09-21T03:12:14.215Z,96174.38
2022-09-21T03:14:41.862Z,96168.84
2022-09-21T03:17:09.773Z,96168.59
2022-09-21T03:19:38.733Z,96170.53
2022-09-21T03:22:06.331Z,96173.22
2022-09-21T03:24:48.895Z,96172.31
2022-09-21T03:27:18.490Z,96165.81
2022-09-21T03:29:46.854Z,96172.75
2022-09-21T03:32:15.284Z,96166.56
2022-09-21T03:34:44.218Z,96174.69
2022-09-21T03:37:12.368Z,96172.03
2022-09-21T03:39:40.041Z,96172.22
2022-09-21T03:42:09.899Z,96170.09
2022-09-21T03:44:38.293Z,96164.91
2022-09-21T03:47:06.676Z,96173.69
2022-09-21T03:49:34.945Z,96164.41
2022-09-21T03:52:04.092Z,96168.81
2022-09-21T03:54:33.373Z,96166.38
2022-09-21T03:57:01.479Z,96165.56
2022-09-21T03:59:29.058Z,96167.22
2022-09-21T04:01:56.648Z,96167.13
2022-09-21T04:04:24.308Z,96172.59
2022-09-21T04:06:51.994Z,96170.84
2022-09-21T04:09:21.005Z,96181.31
2022-09-21T04:11:48.783Z,96173.53
2022-09-21T04:14:17.467Z,96170.84
2022-09-21T04:16:45.105Z,96173.81
2022-09-21T04:19:12.768Z,96178.34
2022-09-21T04:21:40.392Z,96173.44
2022-09-21T04:24:08.142Z,96178.34
2022-09-21T04:26:37.849Z,96178.44
2022-09-21T04:29:06.535Z,96178.06
2022-09-21T04:31:34.575Z,96173.88
2022-09-21T04:34:20.236Z,96186.84
2022-09-21T04:36:48.096Z,96179.50
2022-09-21T04:39:15.662Z,96177.94
2022-09-21T04:41:45.439Z,96186.91
2022-09-21T04:44:13.104Z,96183.50
2022-09-21T04:46:40.679Z,96185.00
2022-09-21T04:49:08.795Z,96184.53
2022-09-21T04:51:36.915Z,96192.09
2022-09-21T04:54:05.036Z,96199.34
2022-09-21T04:56:32.845Z,96199.34
2022-09-21T04:59:01.754Z,96201.66
2022-09-21T05:01:29.364Z,96206.69
2022-09-21T05:04:01.622Z,96201.59
2022-09-21T05:06:29.756Z,96208.44
2022-09-21T05:09:15.529Z,96209.06
2022-09-21T05:11:46.563Z,96213.22
2022-09-21T05:14:15.622Z,96212.31
2022-09-21T05:16:43.220Z,96218.69
2022-09-21T05:19:10.838Z,96221.78
2022-09-21T05:21:38.566Z,96223.53
2022-09-21T05:24:06.500Z,96223.13
2022-09-21T05:26:34.083Z,96226.66
2022-09-21T05:29:02.383Z,96227.69
2022-09-21T05:31:40.798Z,96222.50
2022-09-21T05:34:25.867Z,96225.38
2022-09-21T05:37:01.791Z,96221.22
2022-09-21T05:39:30.018Z,96225.28
2022-09-21T05:41:58.219Z,96225.84
2022-09-21T05:44:26.436Z,96227.13
2022-09-21T05:47:03.074Z,96221.72
2022-09-21T05:49:43.927Z,96216.47
2022-09-21T05:52:20.949Z,96210.16
2022-09-21T05:55:07.913Z,96219.16
2022-09-21T05:57:47.535Z,96220.16
2022-09-21T06:00:19.830Z,96222.66
2022-09-21T06:03:05.941Z,96215.31
2022-09-21T06:05:33.623Z,96223.34
2022-09-21T06:08:01.231Z,96227.53
2022-09-21T06:10:34.796Z,96219.47
2022-09-21T06:13:02.585Z,96228.03
2022-09-21T06:15:30.319Z,96230.28
2022-09-21T06:18:00.169Z,96235.00
2022-09-21T06:20:27.834Z,96232.59
2022-09-21T06:30:17.571Z,96243.13
2022-09-21T06:32:43.827Z,96243.75
2022-09-21T06:35:10.095Z,96241.94
2022-09-21T06:37:39.429Z,96243.22
2022-09-21T06:40:07.177Z,96243.13
2022-09-21T06:42:33.448Z,96249.94
2022-09-21T06:44:59.668Z,96240.50
2022-09-21T06:50:16.397Z,96250.19
2022-09-21T06:52:42.687Z,96246.41
2022-09-21T06:55:12.137Z,96248.75
2022-09-21T06:57:39.313Z,96248.44
2022-09-21T07:00:07.597Z,96248.22
2022-09-21T07:02:34.126Z,96250.50
2022-09-21T07:05:00.847Z,96254.34
2022-09-21T07:07:30.319Z,96255.44
2022-09-21T07:15:00.322Z,96254.97
2022-09-21T07:17:31.145Z,96258.41
2022-09-21T07:19:57.339Z,96257.50
2022-09-21T07:22:23.816Z,96247.00
2022-09-21T07:24:50.071Z,96256.69
2022-09-21T07:27:16.299Z,96253.47
2022-09-21T07:29:42.548Z,96254.94
2022-09-21T07:32:12.299Z,96260.00
2022-09-21T07:39:42.426Z,96257.75
2022-09-21T07:42:08.795Z,96260.97
2022-09-21T13:45:57.637Z,96091.41
2022-09-21T13:48:28.609Z,96086.72
2022-09-21T13:51:06.915Z,96089.09
2022-09-21T13:53:39.871Z,96084.63
2022-09-21T13:58:52.446Z,96085.66
2022-09-21T14:01:45.259Z,96084.13
2022-09-21T14:04:22.146Z,96079.78
2022-09-21T14:06:50.136Z,96079.38
2022-09-21T14:09:24.094Z,96088.06
2022-09-21T14:11:56.418Z,96077.59
2022-09-21T14:22:37.423Z,96070.91
2022-09-21T14:25:25.233Z,96077.47
2022-09-21T14:27:53.606Z,96070.53
2022-09-21T14:30:22.026Z,96064.94
2022-09-21T14:32:55.124Z,96081.22
2022-09-21T14:35:23.660Z,96072.13
2022-09-21T14:37:55.694Z,96069.97
2022-09-21T14:45:31.993Z,96064.88
2022-09-21T14:48:08.541Z,96073.13
2022-09-21T14:50:39.508Z,96073.47
2022-09-21T14:53:27.268Z,96066.50
2022-09-21T14:56:09.395Z,96062.91
2022-09-21T14:58:51.238Z,96065.47
2022-09-21T15:01:36.905Z,96068.00
2022-09-21T15:09:43.782Z,96055.91
2022-09-21T15:12:15.543Z,96062.56
2022-09-21T15:14:45.873Z,96051.66
2022-09-21T15:17:23.654Z,96055.31
2022-09-21T15:19:50.187Z,96046.69
2022-09-21T15:22:18.139Z,96053.63
2022-09-21T15:24:50.811Z,96048.81
2022-09-21T15:29:56.285Z,96056.75
2022-09-21T15:32:31.249Z,96054.28
2022-09-21T15:35:01.461Z,96058.44
2022-09-21T15:37:28.516Z,96056.25
2022-09-21T15:40:02.919Z,96054.06
2022-09-21T15:42:30.173Z,96060.16
2022-09-21T15:45:14.138Z,96048.81
2022-09-21T15:54:08.085Z,96051.63
2022-09-21T15:56:40.489Z,96047.78
2022-09-21T15:59:11.301Z,96047.09
2022-09-21T16:01:42.000Z,96051.59
2022-09-21T16:04:11.869Z,96055.09
2022-09-21T16:07:07.663Z,96044.75
2022-09-21T16:10:07.092Z,96059.97
2022-09-21T16:23:57.321Z,96068.91
2022-09-21T16:26:28.206Z,96079.66
2022-09-21T16:29:13.987Z,96073.56
2022-09-21T16:31:40.337Z,96078.09
2022-09-21T16:34:36.647Z,96078.19
2022-09-21T16:37:23.818Z,96075.69
2022-09-21T16:39:50.650Z,96083.16
2022-09-21T16:47:24.439Z,96084.47
2022-09-21T16:49:54.421Z,96078.97
2022-09-21T16:52:20.979Z,96085.81
2022-09-21T16:54:48.397Z,96085.88
2022-09-21T16:57:15.151Z,96081.72
2022-09-21T16:59:41.425Z,96087.34
2022-09-21T17:02:11.634Z,96088.13
2022-09-21T17:10:54.138Z,96086.41
2022-09-21T17:13:20.361Z,96091.72
2022-09-21T17:15:47.710Z,96090.56
2022-09-21T17:18:14.198Z,96090.47
2022-09-21T17:20:42.959Z,96089.88
2022-09-21T17:23:09.620Z,96089.84
2022-09-21T17:25:36.676Z,96094.59
2022-09-21T17:30:48.876Z,96081.53
2022-09-21T17:33:20.634Z,96093.59
2022-09-21T17:35:48.015Z,96094.09
2022-09-21T17:38:14.749Z,96097.19
2022-09-21T17:40:42.075Z,96096.16
2022-09-21T17:43:27.041Z,96100.00
2022-09-21T17:46:00.501Z,96097.06
2022-09-21T17:48:33.234Z,96099.06
2022-09-21T17:56:17.927Z,96109.19
2022-09-21T17:58:49.874Z,96104.09
2022-09-21T18:01:30.629Z,96107.72
2022-09-21T18:03:57.499Z,96106.59
2022-09-21T18:06:25.219Z,96107.66
2022-09-21T18:08:54.098Z,96104.34
2022-09-21T18:11:41.587Z,96114.19
2022-09-21T18:14:20.285Z,96111.00
2022-09-21T18:16:59.092Z,96116.44
2022-09-21T18:19:38.195Z,96121.94
2022-09-21T18:22:16.238Z,96122.16
2022-09-21T18:24:44.455Z,96120.50
2022-09-21T18:27:13.990Z,96119.78
2022-09-21T18:29:42.356Z,96111.53
2022-09-21T18:32:26.789Z,96123.13
2022-09-21T18:35:25.959Z,96112.13
2022-09-21T18:38:16.104Z,96123.25
2022-09-21T18:40:55.990Z,96125.63
2022-09-21T18:43:34.292Z,96126.56
2022-09-21T18:46:05.031Z,96128.47
2022-09-21T18:48:50.601Z,96134.31
2022-09-21T18:51:24.520Z,96140.59
2022-09-21T18:53:55.771Z,96135.72
2022-09-21T18:56:24.365Z,96137.84
2022-09-21T18:58:54.167Z,96137.38
2022-09-21T19:01:23.573Z,96129.91
2022-09-21T19:03:51.888Z,96132.75
2022-09-21T19:06:30.865Z,96127.91
2022-09-21T19:09:08.908Z,96134.75
2022-09-21T19:11:42.925Z,96134.06
2022-09-21T19:14:20.692Z,96130.03
2022-09-21T19:17:04.949Z,96129.53
2022-09-21T19:19:40.889Z,96129.09
2022-09-21T19:22:15.605Z,96131.56
2022-09-21T19:24:56.919Z,96126.94
2022-09-21T19:27:33.486Z,96127.28
2022-09-21T19:30:08.444Z,96121.38
2022-09-21T19:32:41.148Z,96127.06
2022-09-21T19:35:20.857Z,96125.53
2022-09-21T19:37:49.309Z,96133.47
2022-09-21T19:40:18.432Z,96132.25
2022-09-21T19:43:01.635Z,96135.22
2022-09-21T19:45:39.608Z,96142.66
2022-09-21T19:48:12.346Z,96141.97
2022-09-21T19:50:47.957Z,96140.75
2022-09-21T19:53:33.724Z,96144.72
2022-09-21T19:56:20.658Z,96138.22
2022-09-21T19:59:05.893Z,96145.09
2022-09-21T20:01:42.503Z,96139.06
2022-09-21T20:04:15.010Z,96129.56
2022-09-21T20:06:47.217Z,96136.91
2022-09-21T20:09:22.565Z,96130.88
2022-09-21T20:11:56.334Z,96130.97
2022-09-21T20:14:32.997Z,96134.53
2022-09-21T20:17:08.569Z,96133.91
2022-09-21T20:19:46.365Z,96132.25
2022-09-21T20:22:16.125Z,96128.22
2022-09-21T20:24:52.799Z,96127.84
2022-09-21T20:27:29.854Z,96128.28
2022-09-21T20:29:57.718Z,96124.97
2022-09-21T20:32:26.700Z,96124.25
2022-09-21T20:34:54.600Z,96124.91
2022-09-21T20:37:23.580Z,96125.59
2022-09-21T20:39:51.141Z,96127.94
2022-09-21T20:42:23.425Z,96132.78
2022-09-21T20:44:51.196Z,96131.25
2022-09-21T20:47:19.370Z,96129.00
2022-09-21T20:49:48.667Z,96128.25
2022-09-21T20:52:17.320Z,96125.63
2022-09-21T20:54:49.020Z,96136.06
2022-09-21T20:57:17.559Z,96133.81
2022-09-21T20:59:45.590Z,96131.94
2022-09-21T21:02:15.118Z,96134.88
2022-09-21T21:04:42.711Z,96134.47
2022-09-21T21:07:11.987Z,96132.94
2022-09-21T21:09:39.563Z,96140.16
2022-09-21T21:12:07.547Z,96138.19
2022-09-21T21:14:35.147Z,96138.53
2022-09-21T21:17:03.189Z,96137.19
2022-09-21T21:19:31.187Z,96138.22
2022-09-21T21:21:58.790Z,96132.22
2022-09-21T21:24:43.972Z,96136.06
2022-09-21T21:27:16.478Z,96129.50
2022-09-21T21:29:46.069Z,96132.75
2022-09-21T21:32:14.761Z,96126.13
2022-09-21T21:34:45.676Z,96124.06
2022-09-21T21:37:16.452Z,96118.13
2022-09-21T21:39:45.897Z,96116.50
2022-09-21T21:42:14.184Z,96122.13
2022-09-21T21:44:41.952Z,96119.75
2022-09-21T21:47:37.703Z,96119.03
2022-09-21T21:49:58.302Z,96120.59
2022-09-21T21:52:26.002Z,96119.03
2022-09-21T21:54:54.927Z,96120.41
2022-09-21T21:57:22.906Z,96120.53
2022-09-21T21:59:50.464Z,96126.13
2022-09-21T22:02:18.112Z,96120.94
2022-09-21T22:04:46.047Z,96123.25
2022-09-21T22:07:13.693Z,96128.78
2022-09-21T22:09:41.231Z,96132.09
2022-09-21T22:12:11.296Z,96126.41
2022-09-21T22:14:38.839Z,96132.31
2022-09-21T22:17:06.431Z,96136.81
2022-09-21T22:19:34.190Z,96129.09
2022-09-21T22:22:01.734Z,96141.38
2022-09-21T22:24:29.732Z,96136.28
2022-09-21T22:26:57.714Z,96130.53
2022-09-21T22:29:27.011Z,96129.50
2022-09-21T22:31:55.497Z,96114.63
2022-09-21T22:34:23.150Z,96125.34
2022-09-21T22:36:51.255Z,96115.66
2022-09-21T22:39:19.163Z,96111.13
2022-09-21T22:41:46.708Z,96117.84
2022-09-21T22:44:14.334Z,96112.56
2022-09-21T22:46:43.478Z,96108.41
2022-09-21T22:49:11.029Z,96113.38
2022-09-21T22:51:38.885Z,96111.34
2022-09-21T22:54:06.977Z,96112.59
2022-09-21T22:56:35.316Z,96110.81
2022-09-21T22:59:05.337Z,96112.28
2022-09-21T23:01:35.074Z,96109.91
2022-09-21T23:04:06.463Z,96107.28
2022-09-21T23:06:36.278Z,96109.16
2022-09-21T23:09:26.361Z,96117.06
2022-09-21T23:11:54.090Z,96110.53
2022-09-21T23:14:22.967Z,96102.53
2022-09-21T23:16:50.782Z,96104.13
2022-09-21T23:19:19.848Z,96099.13
2022-09-21T23:21:50.310Z,96098.28
2022-09-21T23:24:18.497Z,96097.56
2022-09-21T23:26:47.493Z,96094.75
2022-09-21T23:29:16.795Z,96097.03
2022-09-21T23:31:45.771Z,96088.00
2022-09-21T23:34:15.135Z,96088.94
2022-09-21T23:36:45.032Z,96087.28
2022-09-21T23:39:14.110Z,96093.09
2022-09-21T23:41:41.732Z,96083.94
2022-09-21T23:44:09.704Z,96088.22
2022-09-21T23:46:38.914Z,96079.59
2022-09-21T23:49:07.083Z,96082.41
2022-09-21T23:51:35.141Z,96083.56
2022-09-21T23:54:04.601Z,96081.88
2022-09-21T23:56:32.859Z,96075.44
2022-09-21T23:59:01.379Z,96075.97
